Time;durP1;ratioP1;P1;durP2;ratioP2;P2;SDS_P1;SDS_P2;PMS_P1;PMS_P2;Temp;Humidity;BMP_temperature;BMP_pressure;BME280_temperature;BME280_humidity;BME280_pressure;Samples;Min_cycle;Max_cycle;Signal;HPM_P1;HPM_P2
2022/03/03 00:01:31;;;;;;;27.95;15.60;;;3.20;82.70;;;0.21;83.59;101027.00;4979912;28;20054;-90
2022/03/03 00:03:58;;;;;;;34.35;16.90;;;3.10;82.80;;;0.37;83.33;101038.38;4976947;28;20043;-92
2022/03/03 00:06:27;;;;;;;32.55;17.02;;;3.10;83.20;;;0.32;83.61;101035.16;4975661;28;20050;-90
2022/03/03 00:08:54;;;;;;;32.45;16.85;;;3.10;83.20;;;0.30;83.15;101032.56;4977248;28;20042;-92
2022/03/03 00:11:22;;;;;;;30.90;17.02;;;3.20;83.20;;;0.30;82.83;101029.06;4994550;28;20050;-91
2022/03/03 00:13:50;;;;;;;31.83;17.80;;;3.10;83.20;;;0.31;82.92;101030.78;4976985;28;20062;-91
2022/03/03 00:16:17;;;;;;;30.52;17.30;;;3.10;83.40;;;0.34;83.87;101023.41;4976533;28;20050;-91
2022/03/03 00:18:44;;;;;;;34.70;18.52;;;3.10;83.60;;;0.38;83.41;101022.22;4976537;28;20050;-93
2022/03/03 00:21:12;;;;;;;27.92;16.88;;;3.10;83.70;;;0.35;83.47;101025.09;4993665;28;20089;-91
2022/03/03 00:23:41;;;;;;;32.75;17.67;;;3.10;83.60;;;0.19;83.40;101019.06;4970522;28;20050;-91
2022/03/03 00:26:08;;;;;;;33.45;18.00;;;3.10;83.60;;;0.09;84.05;101023.34;4996780;28;20046;-91
2022/03/03 00:28:35;;;;;;;32.97;18.15;;;3.10;83.50;;;0.02;84.43;101017.56;4975966;28;20081;-91
2022/03/03 00:31:03;;;;;;;30.92;18.17;;;3.00;83.60;;;0.05;84.81;101021.84;4968581;28;20043;-91
2022/03/03 00:33:30;;;;;;;31.33;18.17;;;3.00;83.90;;;0.01;85.14;101028.38;4976343;28;20132;-89
2022/03/03 00:35:58;;;;;;;29.48;17.38;;;3.00;84.00;;;0.00;85.24;101024.84;4975823;28;20611;-90
2022/03/03 00:38:25;;;;;;;31.85;17.70;;;3.00;84.20;;;-0.02;85.27;101022.28;4975925;28;20088;-90
2022/03/03 00:40:54;;;;;;;36.47;18.10;;;2.90;84.20;;;-0.07;85.33;101024.41;4992823;28;20038;-92
2022/03/03 00:43:21;;;;;;;35.75;17.52;;;2.90;84.10;;;-0.05;85.68;101022.47;4975968;28;20045;-90
2022/03/03 00:45:49;;;;;;;35.28;17.92;;;2.90;84.30;;;-0.04;85.55;101026.00;4992815;28;20045;-89
2022/03/03 00:48:16;;;;;;;31.60;17.95;;;2.90;84.40;;;0.00;85.81;101030.19;4993158;28;20038;-90
2022/03/03 00:50:43;;;;;;;32.08;16.77;;;2.90;84.50;;;-0.08;85.26;101036.03;4975485;28;20122;-92
2022/03/03 00:53:10;;;;;;;34.17;18.65;;;2.90;84.60;;;-0.06;85.41;101042.19;4975748;28;20070;-90
2022/03/03 00:55:38;;;;;;;30.60;16.70;;;2.80;84.80;;;-0.02;85.52;101041.00;4975550;28;20444;-91
2022/03/03 00:58:07;;;;;;;31.23;17.27;;;2.80;85.00;;;-0.07;85.72;101045.78;4992879;28;20126;-91
2022/03/03 01:00:34;;;;;;;30.83;17.80;;;2.80;84.90;;;-0.09;85.84;101039.69;4975314;28;20047;-91
2022/03/03 01:03:01;;;;;;;32.60;17.10;;;2.80;84.80;;;-0.10;86.10;101035.28;4975874;28;20133;-91
2022/03/03 01:05:29;;;;;;;33.28;17.75;;;2.80;85.00;;;-0.10;86.59;101034.44;4993554;28;20125;-90
2022/03/03 01:07:56;;;;;;;34.63;17.13;;;2.80;85.10;;;-0.14;86.40;101038.28;4975077;28;20054;-91
2022/03/03 01:10:23;;;;;;;29.80;17.02;;;2.80;85.20;;;-0.13;87.17;101040.88;4991123;28;20504;-92
2022/03/03 01:12:51;;;;;;;31.85;17.73;;;2.80;85.50;;;-0.18;86.89;101032.28;4975483;28;20133;-91
2022/03/03 01:15:20;;;;;;;30.88;16.90;;;2.70;85.80;;;-0.23;87.22;101034.41;4974093;28;20113;-90
2022/03/03 01:17:48;;;;;;;32.72;17.38;;;2.70;85.80;;;-0.19;87.27;101022.56;4981062;28;20038;-90
2022/03/03 01:20:15;;;;;;;33.55;16.55;;;2.70;85.90;;;-0.24;87.23;101024.66;4972825;28;20038;-90
2022/03/03 01:22:42;;;;;;;30.15;17.00;;;2.70;85.90;;;-0.28;87.67;101037.38;4973898;28;20065;-91
2022/03/03 01:25:10;;;;;;;30.52;17.33;;;2.70;86.00;;;-0.31;87.88;101026.03;4989957;28;20054;-91
2022/03/03 01:27:38;;;;;;;32.13;18.02;;;2.60;86.00;;;-0.27;87.58;101020.38;4973839;28;20122;-90
2022/03/03 01:30:07;;;;;;;32.33;17.45;;;2.60;86.20;;;-0.25;87.84;101023.81;4974151;28;20054;-90
2022/03/03 01:32:36;;;;;;;30.08;17.48;;;2.60;86.20;;;-0.28;88.01;101025.84;4974319;28;20066;-90
2022/03/03 01:35:04;;;;;;;31.45;17.13;;;2.60;86.30;;;-0.34;88.09;101026.22;4974742;28;20576;-93
2022/03/03 01:37:32;;;;;;;32.70;16.92;;;2.60;86.40;;;-0.43;88.75;101023.22;4991632;28;20078;-91
2022/03/03 01:39:59;;;;;;;32.95;17.27;;;2.60;86.40;;;-0.51;88.73;101014.84;4970802;28;20074;-90
2022/03/03 01:42:26;;;;;;;28.90;16.50;;;2.50;86.50;;;-0.53;89.28;101014.09;4971295;28;20050;-89
2022/03/03 01:44:54;;;;;;;33.17;17.45;;;2.50;86.60;;;-0.52;89.65;101007.78;4972622;28;20097;-90
2022/03/03 01:47:24;;;;;;;31.35;16.77;;;2.50;86.80;;;-0.57;89.57;101004.56;4980319;28;20057;-88
2022/03/03 01:49:56;;;;;;;33.22;17.88;;;2.50;86.90;;;-0.52;89.63;101006.91;4957594;28;20053;-90
2022/03/03 01:52:23;;;;;;;32.65;17.02;;;2.40;87.00;;;-0.51;89.31;101003.31;4974935;28;20136;-89
2022/03/03 01:54:51;;;;;;;30.77;16.80;;;2.40;87.20;;;-0.44;90.16;101001.91;4974389;28;20081;-89
2022/03/03 01:57:20;;;;;;;30.33;17.02;;;2.40;87.40;;;-0.48;89.58;101001.25;4973353;28;20397;-91
2022/03/03 01:59:49;;;;;;;33.53;17.35;;;2.40;87.40;;;-0.50;89.64;100995.16;4974299;28;20046;-89
2022/03/03 02:02:16;;;;;;;34.00;16.90;;;2.40;87.40;;;-0.51;90.21;101004.16;4973722;28;20141;-89
2022/03/03 02:04:44;;;;;;;29.52;17.30;;;2.40;87.50;;;-0.43;90.03;100996.47;4974472;28;20081;-90
2022/03/03 02:07:13;;;;;;;30.02;17.00;;;2.40;87.70;;;-0.49;89.77;100991.53;4967998;28;20141;-91
2022/03/03 02:09:41;;;;;;;32.35;17.55;;;2.40;87.60;;;-0.45;89.68;100992.19;4954917;28;20086;-89
2022/03/03 02:12:09;;;;;;;31.42;17.90;;;2.40;87.60;;;-0.55;90.16;100996.41;4970978;28;20105;-90
2022/03/03 02:14:44;;;;;;;32.70;17.20;;;2.40;87.60;;;-0.58;90.46;100996.63;4988130;28;20153;-91
2022/03/03 02:17:12;;;;;;;34.72;16.88;;;2.30;87.90;;;-0.58;90.88;100999.31;4973658;28;20038;-90
2022/03/03 02:19:40;;;;;;;31.95;17.67;;;2.30;88.00;;;-0.64;90.68;100992.56;4974139;28;20054;-91
2022/03/03 02:22:10;;;;;;;31.55;16.70;;;2.30;88.00;;;-0.67;90.79;100996.25;4973803;28;20113;-90
2022/03/03 02:24:44;;;;;;;30.15;17.45;;;2.30;87.90;;;-0.64;90.75;100988.06;4973708;28;20081;-91
2022/03/03 02:27:11;;;;;;;37.70;17.90;;;2.30;88.10;;;-0.68;90.48;100988.38;4973584;28;20065;-91
2022/03/03 02:29:39;;;;;;;39.97;18.38;;;2.20;87.90;;;-0.65;91.02;100986.34;4978608;28;20557;-90
2022/03/03 02:32:09;;;;;;;33.70;18.42;;;2.20;88.10;;;-0.66;90.86;100983.78;4989591;28;20042;-90
2022/03/03 02:34:49;;;;;;;34.15;17.92;;;2.20;88.00;;;-0.70;90.16;100976.94;4991269;28;20795;-91
2022/03/03 02:37:18;;;;;;;32.83;17.35;;;2.20;87.80;;;-0.72;90.62;100976.13;4973627;28;20057;-91
2022/03/03 02:39:45;;;;;;;35.92;18.35;;;2.20;87.90;;;-0.74;90.97;100970.91;4973824;28;20463;-92
2022/03/03 02:42:13;;;;;;;32.78;17.95;;;2.20;88.00;;;-0.77;91.08;100964.91;4973871;28;20057;-91
2022/03/03 02:44:40;;;;;;;36.42;18.17;;;2.20;88.10;;;-0.79;91.07;100978.38;4973640;28;20054;-92
2022/03/03 02:47:08;;;;;;;31.10;16.98;;;2.20;88.10;;;-0.82;91.03;100978.56;4970171;28;20057;-90
2022/03/03 02:49:35;;;;;;;35.17;17.20;;;2.10;88.30;;;-0.79;91.34;100970.34;4974459;28;20596;-92
2022/03/03 02:52:02;;;;;;;35.10;17.92;;;2.10;88.40;;;-0.77;91.49;100964.91;4977452;28;20085;-90
2022/03/03 02:54:31;;;;;;;34.17;17.08;;;2.10;88.50;;;-0.86;91.73;100961.00;4974006;28;20076;-91
2022/03/03 02:59:44;;;;;;;30.90;17.15;;;2.00;88.60;;;-0.92;92.21;100962.28;4970358;28;20054;-91
2022/03/03 03:02:11;;;;;;;28.40;17.38;;;2.00;88.70;;;-1.00;92.71;100956.59;4954354;28;20073;-90
2022/03/03 03:04:39;;;;;;;34.88;18.23;;;2.00;88.90;;;-1.06;92.64;100960.50;4955126;28;20042;-92
2022/03/03 03:07:06;;;;;;;31.70;16.77;;;2.00;89.00;;;-1.18;93.01;100939.94;4954455;28;20086;-90
2022/03/03 03:09:35;;;;;;;36.13;17.33;;;1.90;89.10;;;-1.14;93.10;100945.91;4954528;28;20154;-92
2022/03/03 03:12:02;;;;;;;31.02;17.95;;;1.90;89.20;;;-1.15;93.11;100950.41;4961145;28;20130;-91
2022/03/03 03:14:29;;;;;;;32.90;18.42;;;1.90;89.20;;;-1.07;93.21;100947.25;4973955;28;20665;-91
2022/03/03 03:16:57;;;;;;;33.00;17.70;;;1.80;89.30;;;-1.07;93.53;100947.25;4973025;28;20497;-92
2022/03/03 03:19:24;;;;;;;30.30;17.35;;;1.90;89.40;;;-1.02;93.37;100943.31;4973598;28;20137;-90
2022/03/03 03:21:51;;;;;;;34.38;17.80;;;1.90;89.60;;;-1.02;92.78;100939.81;4973249;28;20050;-91
2022/03/03 03:24:18;;;;;;;31.45;17.67;;;1.90;89.60;;;-1.02;93.13;100946.00;4972945;28;20133;-91
2022/03/03 03:26:47;;;;;;;34.63;18.25;;;1.90;89.60;;;-1.07;92.95;100937.41;4989731;28;20053;-92
2022/03/03 03:29:14;;;;;;;34.15;17.30;;;1.90;89.70;;;-1.10;93.34;100942.13;4989274;28;20104;-90
2022/03/03 03:31:42;;;;;;;33.38;17.70;;;1.90;89.80;;;-1.14;93.55;100943.25;4972828;28;20046;-91
2022/03/03 03:34:09;;;;;;;32.25;17.85;;;1.90;89.80;;;-1.14;93.65;100940.56;4969700;28;20575;-91
2022/03/03 03:36:36;;;;;;;31.23;16.92;;;1.80;89.80;;;-1.11;94.50;100943.06;4982228;28;20569;-90
2022/03/03 03:39:04;;;;;;;32.47;16.83;;;1.80;90.00;;;-1.06;95.15;100948.97;4973328;28;20077;-90
2022/03/03 03:41:32;;;;;;;34.97;18.08;;;1.80;90.50;;;-1.03;95.94;100938.94;4972875;28;20058;-91
2022/03/03 03:44:00;;;;;;;32.78;17.77;;;1.80;90.90;;;-0.93;95.88;100933.84;4975722;28;20043;-91
2022/03/03 03:46:28;;;;;;;30.75;16.60;;;1.80;91.50;;;-0.91;95.98;100926.59;4994244;28;20121;-91
2022/03/03 03:48:55;;;;;;;28.25;16.17;;;1.80;91.60;;;-0.95;95.71;100925.09;4974946;28;20047;-91
2022/03/03 03:51:23;;;;;;;28.35;16.27;;;1.80;91.60;;;-0.95;95.58;100925.09;4957075;28;20043;-90
2022/03/03 03:53:50;;;;;;;31.42;17.73;;;1.80;91.50;;;-0.92;95.56;100918.69;4966803;28;20098;-91
2022/03/03 03:56:17;;;;;;;34.85;17.00;;;1.90;91.60;;;-0.90;95.50;100922.94;4976649;28;20046;-91
2022/03/03 03:58:45;;;;;;;31.98;16.65;;;1.90;91.60;;;-0.89;95.20;100921.16;4976822;28;20061;-92
2022/03/03 04:01:13;;;;;;;29.05;17.27;;;1.90;91.50;;;-0.96;95.45;100923.38;4992143;28;20053;-91
2022/03/03 04:03:44;;;;;;;36.83;17.80;;;1.90;91.40;;;-0.98;95.93;100906.56;4976874;28;20385;-91
2022/03/03 04:06:11;;;;;;;31.37;17.50;;;1.90;91.50;;;-0.94;95.54;100897.41;4976750;28;20065;-91
2022/03/03 04:08:38;;;;;;;30.35;17.42;;;1.90;91.70;;;-0.91;96.18;100909.72;4977037;28;20439;-91
2022/03/03 04:11:06;;;;;;;31.35;17.15;;;1.80;91.60;;;-0.98;96.11;100904.75;4976311;28;20416;-91
2022/03/03 04:13:33;;;;;;;30.77;17.52;;;1.90;91.70;;;-0.91;96.94;100905.22;4976526;28;20504;-91
2022/03/03 04:16:00;;;;;;;27.85;16.65;;;1.90;92.00;;;-0.88;96.54;100891.66;4975912;28;20412;-91
2022/03/03 04:18:30;;;;;;;31.42;16.85;;;1.90;92.00;;;-0.90;96.31;100901.59;4976755;28;20046;-91
2022/03/03 04:20:57;;;;;;;30.60;17.27;;;1.90;91.90;;;-0.90;96.48;100912.28;4975957;28;20496;-92
2022/03/03 04:23:24;;;;;;;35.63;17.10;;;1.90;91.90;;;-0.99;96.67;100892.38;4976314;28;20050;-89
2022/03/03 04:25:52;;;;;;;32.80;16.63;;;1.90;91.90;;;-1.08;96.75;100898.31;4976340;28;20050;-90
2022/03/03 04:28:19;;;;;;;28.42;17.20;;;1.90;91.70;;;-1.24;96.53;100890.47;4975964;28;20065;-90
2022/03/03 04:30:47;;;;;;;26.60;16.50;;;1.80;91.70;;;-1.23;96.83;100894.81;4987179;28;20229;-89
2022/03/03 04:33:14;;;;;;;32.95;16.85;;;1.80;91.70;;;-1.25;97.01;100890.56;4976158;28;20054;-90
2022/03/03 04:35:43;;;;;;;29.58;16.63;;;1.80;91.70;;;-1.19;97.20;100891.00;4975252;28;20046;-91
2022/03/03 04:38:11;;;;;;;31.88;17.23;;;1.80;91.80;;;-1.23;97.31;100885.97;4972598;28;20501;-91
2022/03/03 04:40:38;;;;;;;27.75;15.77;;;1.80;91.80;;;-1.25;96.44;100891.41;4965680;28;20061;-92
2022/03/03 04:43:06;;;;;;;31.60;16.73;;;1.70;91.60;;;-1.31;96.19;100880.28;4976152;28;20051;-91
2022/03/03 04:45:33;;;;;;;28.90;16.05;;;1.80;91.60;;;-1.37;96.72;100881.53;4976248;28;20413;-91
2022/03/03 04:48:01;;;;;;;31.25;16.13;;;1.70;91.60;;;-1.27;97.22;100889.78;4984293;28;20049;-91
2022/03/03 04:50:30;;;;;;;28.70;16.70;;;1.80;91.70;;;-1.30;96.28;100879.31;4969055;28;20122;-91
2022/03/03 04:52:59;;;;;;;26.83;15.90;;;1.60;91.60;;;-1.35;96.04;100881.41;4973014;28;20054;-90
2022/03/03 04:55:26;;;;;;;27.70;16.55;;;1.60;91.50;;;-1.33;96.30;100877.69;4959117;28;20046;-91
2022/03/03 04:57:54;;;;;;;30.95;15.93;;;1.60;91.40;;;-1.47;96.14;100877.72;4976135;28;20042;-90
2022/03/03 05:00:21;;;;;;;32.58;16.63;;;1.60;91.30;;;-1.53;96.97;100870.97;4975509;28;20053;-91
2022/03/03 05:02:49;;;;;;;30.65;16.00;;;1.60;91.60;;;-1.47;96.28;100869.72;4976305;28;20047;-91
2022/03/03 05:05:16;;;;;;;29.15;15.32;;;1.60;91.50;;;-1.50;96.03;100869.94;4988328;28;20089;-91
2022/03/03 05:07:43;;;;;;;26.77;15.57;;;1.60;91.40;;;-1.61;96.48;100870.59;4975615;28;20108;-91
2022/03/03 05:10:15;;;;;;;30.75;16.52;;;1.50;91.50;;;-1.47;96.30;100875.03;4971578;28;20053;-87
2022/03/03 05:12:42;;;;;;;31.60;16.63;;;1.40;91.80;;;-1.38;96.16;100877.13;4989668;28;20650;-83
2022/03/03 05:15:10;;;;;;;33.72;16.35;;;1.40;91.80;;;-1.41;96.03;100870.19;4973207;28;20057;-89
2022/03/03 05:17:39;;;;;;;28.85;16.10;;;1.40;91.80;;;-1.36;96.31;100867.19;4978979;28;20053;-89
2022/03/03 05:20:08;;;;;;;28.77;16.42;;;1.50;92.00;;;-1.24;96.70;100869.09;4991034;28;20467;-90
2022/03/03 05:22:35;;;;;;;32.17;17.30;;;1.50;92.20;;;-1.22;96.01;100872.53;4991285;28;20129;-91
2022/03/03 05:25:03;;;;;;;26.33;15.15;;;1.50;92.00;;;-1.21;95.36;100871.53;4973441;28;20085;-90
2022/03/03 05:27:33;;;;;;;27.08;16.17;;;1.50;92.10;;;-1.24;95.17;100871.75;4990403;28;20567;-89
2022/03/03 05:30:00;;;;;;;27.52;16.67;;;1.50;91.90;;;-1.32;95.77;100868.72;4990813;28;20138;-90
2022/03/03 05:32:29;;;;;;;29.85;16.50;;;1.50;91.90;;;-1.28;96.33;100872.91;4973068;28;20575;-89
2022/03/03 05:34:56;;;;;;;36.58;17.73;;;1.50;92.10;;;-1.28;96.01;100875.56;4973540;28;20128;-89
2022/03/03 05:37:25;;;;;;;28.77;15.98;;;1.50;92.20;;;-1.26;96.37;100873.66;4972631;28;20120;-89
2022/03/03 05:39:53;;;;;;;28.92;16.30;;;1.50;92.60;;;-1.25;96.27;100878.03;4973192;28;20078;-90
2022/03/03 05:42:23;;;;;;;28.25;16.35;;;1.50;92.50;;;-1.32;96.44;100879.41;4989309;28;20142;-90
2022/03/03 05:44:52;;;;;;;35.83;16.95;;;1.50;92.30;;;-1.39;96.29;100873.59;4973223;28;20536;-89
2022/03/03 05:47:21;;;;;;;29.88;16.45;;;1.50;92.20;;;-1.42;96.86;100872.94;4972912;28;20053;-89
2022/03/03 05:49:50;;;;;;;27.92;16.50;;;1.50;92.30;;;-1.45;96.62;100878.47;4972853;28;20065;-88
2022/03/03 05:52:18;;;;;;;27.05;15.73;;;1.40;92.20;;;-1.44;96.63;100872.19;4990591;28;20058;-89
2022/03/03 05:54:45;;;;;;;29.90;16.60;;;1.40;92.30;;;-1.51;96.60;100868.19;4990329;28;20081;-89
2022/03/03 05:57:19;;;;;;;29.13;16.45;;;1.40;92.30;;;-1.57;96.98;100869.44;4990049;28;20128;-89
2022/03/03 05:59:51;;;;;;;30.00;17.13;;;1.40;92.40;;;-1.59;96.94;100871.34;4990347;28;20092;-90
2022/03/03 06:02:21;;;;;;;33.53;17.10;;;1.40;92.30;;;-1.62;97.18;100875.09;4972857;28;20116;-89
2022/03/03 06:04:49;;;;;;;32.00;17.05;;;1.40;92.30;;;-1.66;97.40;100875.34;4990083;28;20081;-89
2022/03/03 06:07:25;;;;;;;33.53;16.92;;;1.30;92.50;;;-1.68;97.69;100878.13;4972299;28;20042;-91
2022/03/03 06:09:55;;;;;;;31.17;16.80;;;1.30;92.40;;;-1.71;98.39;100889.00;4972726;28;20559;-90
2022/03/03 06:12:33;;;;;;;32.17;16.42;;;1.30;92.40;;;-1.77;97.88;100889.41;4989249;28;20050;-92
2022/03/03 06:15:12;;;;;;;30.27;16.60;;;1.30;92.60;;;-1.77;98.37;100884.06;4975152;28;20057;-95
2022/03/03 06:17:44;;;;;;;28.38;16.15;;;1.30;92.60;;;-1.79;97.91;100885.94;4976546;28;20585;-94
2022/03/03 06:20:24;;;;;;;29.65;16.15;;;1.20;92.50;;;-1.79;98.36;100869.94;4979839;28;20065;-94
2022/03/03 06:22:52;;;;;;;29.25;15.57;;;1.20;92.60;;;-1.79;98.07;100875.25;4993461;28;20522;-95
2022/03/03 06:25:24;;;;;;;28.73;17.27;;;1.20;92.60;;;-1.72;98.09;100871.25;4976231;28;20536;-94
2022/03/03 06:27:52;;;;;;;28.70;16.15;;;1.20;92.90;;;-1.73;98.24;100871.34;4976694;28;20057;-94
2022/03/03 06:30:19;;;;;;;30.92;16.65;;;1.20;93.00;;;-1.62;98.10;100883.09;4976350;28;20042;-87
2022/03/03 06:32:51;;;;;;;32.45;16.98;;;1.20;93.10;;;-1.61;97.44;100879.44;4976971;28;20050;-93
2022/03/03 06:35:18;;;;;;;30.70;16.20;;;1.20;93.00;;;-1.58;97.75;100871.25;4975969;28;20078;-94
2022/03/03 06:37:46;;;;;;;33.85;17.55;;;1.30;93.10;;;-1.53;97.81;100870.97;4976190;28;20137;-94
2022/03/03 06:40:14;;;;;;;36.55;17.48;;;1.40;93.10;;;-1.45;97.71;100876.66;4975980;28;20140;-94
2022/03/03 06:42:43;;;;;;;31.02;16.70;;;1.30;93.20;;;-1.42;98.33;100863.13;4964598;28;20086;-93
2022/03/03 06:45:15;;;;;;;27.20;15.90;;;1.40;93.40;;;-1.38;98.34;100859.28;4975124;28;20047;-91
2022/03/03 06:47:45;;;;;;;29.20;16.20;;;1.40;93.40;;;-1.31;98.00;100867.78;4974109;28;20489;-90
2022/03/03 06:50:49;;;;;;;32.97;16.67;;;1.40;93.60;;;-1.21;98.05;100860.00;4979504;28;20496;-94
2022/03/03 06:53:21;;;;;;;31.58;17.05;;;1.40;93.60;;;-1.07;97.71;100872.47;4979501;28;20447;-84
2022/03/03 06:55:51;;;;;;;31.05;16.80;;;1.50;93.80;;;-1.08;97.61;100860.94;4994483;28;20070;-93
2022/03/03 06:58:31;;;;;;;29.27;17.13;;;1.50;93.80;;;-1.03;97.90;100865.94;4992163;28;20042;-92
2022/03/03 07:01:03;;;;;;;29.10;15.98;;;1.60;93.80;;;-1.04;97.68;100856.25;4993593;28;20285;-93
2022/03/03 07:04:00;;;;;;;30.88;16.92;;;1.60;93.80;;;-0.91;97.72;100862.47;5010196;28;20507;-91
2022/03/03 07:06:30;;;;;;;29.98;17.67;;;1.60;93.90;;;-0.92;97.95;100854.56;4973249;28;20417;-94
2022/03/03 07:08:58;;;;;;;33.58;17.45;;;1.70;94.10;;;-0.91;98.01;100859.81;4991137;28;20054;-94
2022/03/03 07:11:27;;;;;;;32.67;17.92;;;1.70;94.10;;;-0.93;98.36;100875.09;4980951;28;20046;-93
2022/03/03 07:14:01;;;;;;;29.85;16.90;;;1.70;94.10;;;-0.83;98.07;100869.97;4990515;28;20490;-93
2022/03/03 07:16:41;;;;;;;35.90;17.17;;;1.70;94.10;;;-0.73;98.12;100876.41;4991061;28;20054;-92
2022/03/03 07:19:25;;;;;;;38.00;16.80;;;1.80;94.10;;;-0.53;97.29;100883.09;4972806;28;20038;-93
2022/03/03 07:22:07;;;;;;;29.38;16.77;;;1.80;94.00;;;-0.37;96.49;100876.72;4991747;28;20043;-93
2022/03/03 07:24:43;;;;;;;30.70;17.30;;;1.90;94.10;;;-0.22;95.77;100889.03;4992683;28;20052;-93
2022/03/03 07:27:20;;;;;;;30.17;17.15;;;1.90;93.90;;;-0.09;94.98;100886.34;4974293;28;20701;-92
2022/03/03 07:29:57;;;;;;;30.48;16.85;;;2.00;93.90;;;0.05;93.67;100885.38;4969624;28;20069;-93
2022/03/03 07:32:34;;;;;;;33.85;17.10;;;2.10;93.80;;;0.27;92.54;100893.63;4967362;28;20051;-92
2022/03/03 07:35:07;;;;;;;30.77;17.88;;;2.10;93.40;;;0.35;91.82;100879.69;4976526;28;20050;-92
2022/03/03 07:37:47;;;;;;;30.27;17.17;;;2.20;93.00;;;0.49;89.55;100886.72;4969702;28;20050;-93
2022/03/03 07:40:14;;;;;;;28.17;16.38;;;2.30;92.60;;;0.63;89.17;100891.06;4992271;28;20456;-92
2022/03/03 07:42:42;;;;;;;31.42;17.05;;;2.30;92.10;;;0.75;89.05;100893.72;4977345;28;20050;-92
2022/03/03 07:45:10;;;;;;;29.25;16.70;;;2.40;92.00;;;0.87;87.50;100899.16;4972986;28;20081;-91
2022/03/03 07:47:39;;;;;;;30.75;16.73;;;2.50;91.40;;;0.95;86.71;100889.59;4984306;28;20051;-91
2022/03/03 07:50:08;;;;;;;34.30;16.67;;;2.50;91.00;;;1.05;87.10;100891.56;4978853;28;20500;-91
2022/03/03 07:52:55;;;;;;;30.48;17.30;;;2.60;90.90;;;1.23;85.84;100897.38;4987702;28;20046;-93
2022/03/03 07:55:23;;;;;;;30.77;16.92;;;2.70;90.80;;;1.32;86.26;100897.56;4975957;28;20046;-92
2022/03/03 07:58:02;;;;;;;25.55;15.88;;;2.80;90.90;;;1.34;85.72;100894.75;4971563;28;20043;-92
2022/03/03 08:01:08;;;;;;;27.70;15.90;;;2.80;90.60;;;1.51;85.51;100906.91;4968071;28;20038;-93
2022/03/03 08:03:48;;;;;;;27.08;15.88;;;2.90;90.30;;;1.65;84.31;100893.28;4995020;28;20046;-93
2022/03/03 08:09:25;;;;;;;28.02;15.23;;;3.10;89.50;;;1.92;83.25;100894.78;4978860;28;20077;-93
2022/03/03 08:11:55;;;;;;;26.98;15.15;;;3.20;88.80;;;1.94;83.40;100891.03;4976175;28;20086;-93
2022/03/03 08:14:24;;;;;;;27.17;15.32;;;3.30;88.80;;;2.04;82.97;100887.63;4962536;28;20046;-91
2022/03/03 08:16:52;;;;;;;26.08;15.43;;;3.40;88.80;;;2.14;82.27;100893.97;4978182;28;20046;-92
2022/03/03 08:19:20;;;;;;;29.77;15.70;;;3.50;88.30;;;2.16;79.40;100889.34;4977124;28;20058;-91
2022/03/03 08:25:42;;;;;;;28.05;15.75;;;3.60;87.40;;;2.33;80.55;100909.50;4976675;28;20038;-90
2022/03/03 08:28:10;;;;;;;25.88;15.00;;;3.80;87.10;;;2.39;79.92;100903.63;4989585;23;20064;-88
2022/03/03 08:30:37;;;;;;;28.73;15.25;;;3.90;87.30;;;2.47;78.06;100900.34;4994047;28;20573;-87
2022/03/03 08:33:13;;;;;;;28.52;15.35;;;3.90;86.40;;;2.54;79.60;100901.56;5010689;28;20140;-87
2022/03/03 08:35:45;;;;;;;26.02;14.98;;;4.00;86.30;;;2.66;78.23;100900.56;5008701;28;20060;-87
2022/03/03 08:38:24;;;;;;;30.73;15.18;;;4.10;86.10;;;2.78;78.27;100897.84;4992686;28;20069;-88
2022/03/03 08:40:57;;;;;;;24.45;14.07;;;4.20;85.20;;;2.85;77.92;100899.06;4987190;28;20058;-88
2022/03/03 08:43:28;;;;;;;25.50;14.23;;;4.30;84.50;;;2.87;76.33;100897.94;4988499;28;20227;-89
2022/03/03 08:45:58;;;;;;;26.90;14.50;;;4.40;84.30;;;2.92;75.53;100889.53;4988526;28;20057;-89
2022/03/03 08:48:30;;;;;;;26.55;14.55;;;4.50;84.00;;;3.02;76.63;100890.47;4993495;28;20107;-88
2022/03/03 08:51:02;;;;;;;27.83;14.43;;;4.50;83.60;;;3.08;77.37;100889.94;4989598;28;20050;-90
2022/03/03 08:53:29;;;;;;;25.50;14.38;;;4.50;83.40;;;3.22;76.23;100879.88;5007796;28;20129;-88
2022/03/03 08:56:00;;;;;;;28.65;14.52;;;4.70;83.70;;;3.25;76.04;100874.25;4972519;28;20054;-89
2022/03/03 08:58:27;;;;;;;37.13;14.77;;;4.70;83.10;;;3.35;75.73;100871.66;4986453;28;20051;-88
2022/03/03 09:00:55;;;;;;;35.05;14.55;;;4.80;83.00;;;3.44;74.20;100879.78;5000391;28;20074;-89
2022/03/03 09:03:22;;;;;;;23.88;13.77;;;4.90;82.50;;;3.46;73.66;100864.38;4988640;28;20856;-89
2022/03/03 09:05:50;;;;;;;22.50;13.35;;;4.90;81.30;;;3.52;72.26;100871.06;4992394;28;20057;-88
2022/03/03 09:08:18;;;;;;;26.38;14.23;;;5.00;81.60;;;3.53;73.46;100868.25;4997953;28;20076;-88
2022/03/03 09:10:46;;;;;;;25.88;12.80;;;5.00;81.20;;;3.60;71.89;100867.72;4988152;28;20056;-88
2022/03/03 09:13:15;;;;;;;22.77;13.60;;;5.10;80.80;;;3.62;72.16;100865.78;5005378;28;20554;-88
2022/03/03 09:15:42;;;;;;;28.13;13.60;;;5.10;80.20;;;3.70;69.90;100858.75;4979267;28;20120;-88
2022/03/03 09:18:10;;;;;;;25.48;12.95;;;5.10;80.40;;;3.80;69.71;100863.34;4985910;28;20100;-88
2022/03/03 09:20:38;;;;;;;26.30;12.88;;;5.20;79.90;;;3.88;69.07;100860.84;5002282;28;20049;-89
2022/03/03 09:23:05;;;;;;;21.17;12.52;;;5.30;80.00;;;3.89;68.65;100863.41;4974509;28;20074;-88
2022/03/03 09:25:36;;;;;;;30.08;13.25;;;5.30;80.10;;;3.96;69.93;100868.25;5009964;28;20785;-88
2022/03/03 09:28:04;;;;;;;26.87;13.60;;;5.30;78.90;;;3.99;68.26;100868.84;5007054;28;20080;-88
2022/03/03 09:30:33;;;;;;;25.50;12.27;;;5.40;77.80;;;4.09;68.82;100869.75;5026573;28;20055;-89
2022/03/03 09:33:01;;;;;;;20.90;11.93;;;5.50;78.30;;;4.17;66.75;100863.69;5027858;28;20513;-89
2022/03/03 09:35:29;;;;;;;26.45;12.23;;;5.60;77.90;;;4.21;67.65;100853.50;5015448;28;20461;-88
2022/03/03 09:37:56;;;;;;;23.15;12.73;;;5.70;76.90;;;4.25;67.24;100857.63;5028986;28;20067;-88
2022/03/03 09:40:25;;;;;;;21.00;12.27;;;5.70;76.60;;;4.31;65.48;100865.16;5027102;28;20049;-88
2022/03/03 09:42:59;;;;;;;23.73;12.57;;;5.70;76.30;;;4.39;66.76;100854.56;5037664;28;20046;-88
2022/03/03 09:45:27;;;;;;;22.17;12.27;;;5.80;74.70;;;4.42;65.75;100854.31;5021073;28;20090;-88
2022/03/03 09:47:57;;;;;;;19.98;12.02;;;5.90;75.10;;;4.46;65.58;100846.81;5037055;23;20040;-81
2022/03/03 09:50:26;;;;;;;23.20;12.65;;;5.90;74.00;;;4.54;65.26;100848.81;5004393;28;20034;-84
2022/03/03 09:52:55;;;;;;;24.13;12.27;;;6.00;74.30;;;4.59;63.96;100850.09;5020505;28;20084;-80
2022/03/03 09:55:23;;;;;;;20.75;12.35;;;6.00;73.70;;;4.63;64.66;100846.13;5008692;28;20050;-82
2022/03/03 09:57:52;;;;;;;20.15;11.50;;;6.10;73.10;;;4.73;63.78;100845.31;5007042;28;20400;-80
2022/03/03 10:00:19;;;;;;;23.23;12.20;;;6.10;72.70;;;4.80;63.42;100841.06;4990895;28;20124;-82
2022/03/03 10:03:08;;;;;;;21.35;11.68;;;6.20;72.50;;;4.88;61.97;100838.53;5007772;28;20508;-85
2022/03/03 10:05:39;;;;;;;21.42;11.48;;;6.30;72.00;;;4.94;63.45;100832.56;4971010;28;20042;-84
2022/03/03 10:08:09;;;;;;;20.73;11.05;;;6.30;72.00;;;5.00;61.66;100832.00;4971798;28;20050;-84
2022/03/03 10:10:40;;;;;;;32.83;11.57;;;6.40;70.10;;;5.11;59.59;100827.47;4994775;28;20041;-84
2022/03/03 10:13:08;;;;;;;22.42;10.35;;;6.50;69.60;;;5.17;59.72;100832.28;4983703;28;20847;-84
2022/03/03 10:15:37;;;;;;;16.77;10.00;;;6.60;69.40;;;5.25;58.61;100824.34;4990270;28;20078;-84
2022/03/03 10:18:10;;;;;;;17.38;9.82;;;6.70;68.40;;;5.28;58.88;100824.91;4990057;28;20056;-85
2022/03/03 10:20:48;;;;;;;17.35;10.00;;;6.70;67.60;;;5.36;57.34;100821.50;4965954;28;20054;-84
2022/03/03 10:23:15;;;;;;;16.85;10.50;;;6.80;68.00;;;5.44;58.17;100821.63;4972302;28;20042;-84
2022/03/03 10:25:45;;;;;;;16.45;10.32;;;6.80;67.10;;;5.49;57.65;100821.19;4989845;28;20145;-84
2022/03/03 10:28:16;;;;;;;18.40;9.80;;;6.90;66.50;;;5.51;58.35;100824.59;4989857;28;20516;-85